Time;durP1;ratioP1;P1;durP2;ratioP2;P2;SDS_P1;SDS_P2;PMS_P1;PMS_P2;Temp;Humidity;BMP_temperature;BMP_pressure;BME280_temperature;BME280_humidity;BME280_pressure;Samples;Min_cycle;Max_cycle;Signal;HPM_P1;HPM_P2
2021/01/12 00:04:35;;;;;;;17.33;7.40;;;;;6.10;100690.00;;;;10420111;28;20200;-78
2021/01/12 00:09:37;;;;;;;11.47;7.67;;;;;6.20;100679.00;;;;10454460;28;20256;-78
2021/01/12 00:14:38;;;;;;;15.67;9.10;;;;;6.20;100674.00;;;;10406881;28;20190;-78
2021/01/12 00:19:40;;;;;;;17.80;8.80;;;;;6.20;100664.00;;;;10440677;28;20187;-78
2021/01/12 00:24:46;;;;;;;14.33;7.53;;;;;6.20;100649.00;;;;10434916;28;20216;-78
2021/01/12 00:29:48;;;;;;;15.60;7.40;;;;;6.20;100634.00;;;;10447843;28;20230;-78
2021/01/12 00:34:50;;;;;;;10.67;7.10;;;;;6.20;100610.00;;;;10451175;28;20629;-78
2021/01/12 00:39:53;;;;;;;10.93;7.30;;;;;6.20;100601.00;;;;10442253;28;20215;-78
2021/01/12 00:44:54;;;;;;;8.83;6.77;;;;;6.30;100597.00;;;;10453539;28;20214;-78
2021/01/12 00:49:55;;;;;;;6.10;5.40;;;;;6.30;100586.00;;;;10464419;28;20233;-78
2021/01/12 00:54:57;;;;;;;9.60;6.47;;;;;6.30;100576.00;;;;10424297;28;20740;-78
2021/01/12 00:59:58;;;;;;;7.60;6.10;;;;;6.30;100574.00;;;;10452347;28;20190;-77
2021/01/12 01:04:59;;;;;;;8.10;5.80;;;;;6.40;100572.00;;;;10430545;28;20291;-78
2021/01/12 01:10:03;;;;;;;7.77;5.10;;;;;6.40;100572.00;;;;10389003;28;20270;-78
2021/01/12 01:15:05;;;;;;;7.87;5.43;;;;;6.40;100546.00;;;;10374976;28;20233;-78
2021/01/12 01:20:08;;;;;;;9.13;6.10;;;;;6.40;100558.00;;;;10382985;28;20190;-78
2021/01/12 01:25:10;;;;;;;7.47;5.73;;;;;6.40;100562.00;;;;10408558;28;20191;-78
2021/01/12 01:30:12;;;;;;;8.93;6.57;;;;;6.40;100559.00;;;;10409060;28;20264;-78
2021/01/12 01:35:13;;;;;;;7.07;5.77;;;;;6.30;100542.00;;;;10414592;28;20259;-78
2021/01/12 01:40:24;;;;;;;8.77;6.90;;;;;6.40;100540.00;;;;10405236;28;20330;-78
2021/01/12 01:45:25;;;;;;;6.87;5.67;;;;;6.40;100532.00;;;;10428520;28;20219;-78
2021/01/12 01:50:27;;;;;;;10.00;6.57;;;;;6.40;100522.00;;;;10429153;28;20218;-78
2021/01/12 01:55:28;;;;;;;10.20;6.67;;;;;6.40;100508.00;;;;10405577;28;20864;-78
2021/01/12 02:00:31;;;;;;;7.13;5.17;;;;;6.50;100505.00;;;;10422433;28;20199;-78
2021/01/12 02:05:35;;;;;;;9.27;6.17;;;;;6.60;100485.00;;;;10425176;28;20650;-78
2021/01/12 02:10:45;;;;;;;7.67;5.90;;;;;6.60;100477.00;;;;10409681;28;20201;-77
2021/01/12 02:15:47;;;;;;;7.87;5.73;;;;;6.60;100467.00;;;;10447133;28;20202;-78
2021/01/12 02:20:50;;;;;;;14.70;6.77;;;;;6.60;100457.00;;;;10444562;28;20198;-78
2021/01/12 02:25:52;;;;;;;8.77;5.90;;;;;6.60;100464.00;;;;10411183;28;20191;-78
2021/01/12 02:30:55;;;;;;;9.60;5.50;;;;;6.60;100447.00;;;;10421162;28;20285;-78
2021/01/12 02:35:59;;;;;;;5.40;4.50;;;;;6.70;100443.00;;;;10427268;28;20202;-78
2021/01/12 02:41:14;;;;;;;4.90;4.33;;;;;6.70;100435.00;;;;10464958;28;20194;-78
2021/01/12 02:46:16;;;;;;;6.13;5.40;;;;;6.70;100420.00;;;;10430444;28;20206;-78
2021/01/12 02:51:17;;;;;;;6.33;5.03;;;;;6.70;100408.00;;;;10410814;28;20273;-78
2021/01/12 02:56:23;;;;;;;6.80;5.10;;;;;6.80;100401.00;;;;10424229;28;20234;-78
2021/01/12 03:01:25;;;;;;;5.97;5.37;;;;;6.80;100398.00;;;;10394311;28;20657;-78
2021/01/12 03:06:27;;;;;;;9.07;5.00;;;;;6.80;100385.00;;;;10428931;28;20212;-78
2021/01/12 03:11:28;;;;;;;7.30;5.07;;;;;6.80;100371.00;;;;10431019;28;20205;-78
2021/01/12 03:16:33;;;;;;;7.83;5.40;;;;;6.90;100352.00;;;;10430027;28;20534;-78
2021/01/12 03:21:35;;;;;;;6.53;5.23;;;;;6.90;100349.00;;;;10460457;28;20195;-78
2021/01/12 03:26:37;;;;;;;6.50;4.40;;;;;6.90;100340.00;;;;10437851;28;20202;-78
2021/01/12 03:31:38;;;;;;;6.10;4.40;;;;;6.90;100334.00;;;;10457035;28;20198;-78
2021/01/12 03:36:40;;;;;;;4.70;3.93;;;;;7.00;100334.00;;;;10463331;28;20193;-78
2021/01/12 03:41:41;;;;;;;4.20;2.97;;;;;7.00;100332.00;;;;10387227;28;20218;-78
2021/01/12 03:46:43;;;;;;;4.90;2.90;;;;;7.10;100323.00;;;;10453853;28;20241;-78
2021/01/12 03:51:44;;;;;;;2.67;2.47;;;;;7.10;100311.00;;;;10448430;28;20205;-79
2021/01/12 03:56:46;;;;;;;2.77;1.73;;;;;7.20;100307.00;;;;10419871;28;20239;-79
2021/01/12 04:01:47;;;;;;;2.83;1.50;;;;;7.20;100305.00;;;;10439487;28;20202;-79
2021/01/12 04:06:48;;;;;;;2.63;1.73;;;;;7.20;100302.00;;;;10429449;28;20214;-78
2021/01/12 04:11:50;;;;;;;2.13;1.30;;;;;7.20;100281.00;;;;10420650;28;20191;-79
2021/01/12 04:16:51;;;;;;;1.93;1.30;;;;;7.20;100281.00;;;;10435612;28;20191;-79
2021/01/12 04:21:53;;;;;;;1.53;1.10;;;;;7.20;100270.00;;;;10417529;28;20202;-79
2021/01/12 04:26:54;;;;;;;2.80;1.70;;;;;7.20;100266.00;;;;10428681;28;20261;-79
2021/01/12 04:31:55;;;;;;;1.43;1.10;;;;;7.20;100271.00;;;;10412380;28;20285;-79
2021/01/12 04:36:57;;;;;;;2.63;1.57;;;;;7.30;100255.00;;;;10431404;28;20274;-80
2021/01/12 04:42:03;;;;;;;1.50;1.37;;;;;7.30;100251.00;;;;10408523;28;20187;-79
2021/01/12 04:47:07;;;;;;;1.20;1.10;;;;;7.30;100241.00;;;;10427229;28;20248;-79
2021/01/12 04:52:09;;;;;;;1.63;1.27;;;;;7.30;100241.00;;;;10456955;28;20194;-78
2021/01/12 04:57:13;;;;;;;1.80;1.40;;;;;7.30;100231.00;;;;10458339;28;20187;-78
2021/01/12 05:02:15;;;;;;;2.10;1.27;;;;;7.30;100223.00;;;;10425236;28;20201;-79
2021/01/12 05:07:17;;;;;;;2.33;1.70;;;;;7.40;100218.00;;;;10439065;28;20266;-79
2021/01/12 05:12:19;;;;;;;3.13;1.80;;;;;7.40;100228.00;;;;10446666;28;20250;-79
2021/01/12 05:17:23;;;;;;;2.63;1.60;;;;;7.40;100227.00;;;;10434719;28;20220;-78
2021/01/12 05:22:28;;;;;;;3.07;2.07;;;;;7.40;100223.00;;;;10380700;28;20230;-79
2021/01/12 05:27:31;;;;;;;5.77;2.47;;;;;7.40;100213.00;;;;10423450;28;20674;-79
2021/01/12 05:32:36;;;;;;;4.00;2.80;;;;;7.50;100190.00;;;;10428644;28;20416;-79
2021/01/12 05:37:40;;;;;;;5.50;2.53;;;;;7.50;100190.00;;;;10440536;28;20285;-78
2021/01/12 05:42:41;;;;;;;4.10;2.43;;;;;7.50;100169.00;;;;10429935;28;20260;-78
2021/01/12 05:47:43;;;;;;;4.67;1.93;;;;;7.50;100164.00;;;;10392021;28;20202;-79
2021/01/12 05:52:59;;;;;;;4.77;1.90;;;;;7.50;100153.00;;;;10401184;28;20203;-79
2021/01/12 05:58:10;;;;;;;3.17;1.90;;;;;7.60;100143.00;;;;10459158;28;20186;-79
2021/01/12 06:03:16;;;;;;;2.80;1.80;;;;;7.60;100136.00;;;;10426528;28;20237;-79
2021/01/12 06:08:18;;;;;;;6.13;2.20;;;;;7.60;100130.00;;;;10401646;28;20599;-80
2021/01/12 06:13:20;;;;;;;6.70;2.00;;;;;7.70;100130.00;;;;10470551;28;20210;-79
2021/01/12 06:18:22;;;;;;;5.63;1.97;;;;;7.70;100139.00;;;;10476656;28;20209;-79
2021/01/12 06:23:40;;;;;;;3.23;2.30;;;;;7.70;100126.00;;;;10410479;28;20235;-79
2021/01/12 06:28:42;;;;;;;4.07;1.90;;;;;7.70;100123.00;;;;10445645;28;20202;-78
2021/01/12 06:33:55;;;;;;;2.00;1.70;;;;;7.70;100113.00;;;;10395442;28;20186;-78
2021/01/12 06:38:57;;;;;;;3.17;1.80;;;;;7.70;100124.00;;;;10424167;28;20179;-78
2021/01/12 06:44:23;;;;;;;3.50;2.00;;;;;7.80;100132.00;;;;10426104;28;20665;-78
2021/01/12 06:49:29;;;;;;;3.80;1.80;;;;;7.80;100133.00;;;;10428081;28;20259;-79
2021/01/12 06:54:38;;;;;;;2.50;1.40;;;;;7.90;100137.00;;;;10452249;28;20187;-78
2021/01/12 06:59:45;;;;;;;3.40;1.50;;;;;7.90;100135.00;;;;10436717;28;20205;-78
2021/01/12 07:05:14;;;;;;;4.97;1.40;;;;;8.00;100139.00;;;;10421758;28;20190;-78
2021/01/12 07:10:17;;;;;;;3.73;1.93;;;;;8.00;100143.00;;;;10427508;28;20234;-79
2021/01/12 07:15:23;;;;;;;4.80;1.90;;;;;8.00;100144.00;;;;10442004;28;20592;-79
2021/01/12 07:20:26;;;;;;;5.17;2.00;;;;;8.00;100147.00;;;;10451531;28;20187;-79
2021/01/12 07:25:30;;;;;;;7.03;2.40;;;;;8.10;100151.00;;;;10421713;28;20191;-79
2021/01/12 07:30:33;;;;;;;6.13;2.53;;;;;8.10;100146.00;;;;10427656;28;20207;-78
2021/01/12 07:35:36;;;;;;;6.30;2.80;;;;;8.10;100157.00;;;;10420312;28;20222;-79
2021/01/12 07:40:38;;;;;;;5.70;3.33;;;;;8.10;100147.00;;;;10420612;28;20256;-78
2021/01/12 07:45:39;;;;;;;4.63;3.10;;;;;8.10;100154.00;;;;10409918;28;20218;-78
2021/01/12 07:50:49;;;;;;;7.37;4.30;;;;;8.10;100162.00;;;;10396104;28;20265;-78
2021/01/12 07:55:51;;;;;;;9.60;4.37;;;;;8.10;100155.00;;;;10433599;28;20201;-78
2021/01/12 08:00:53;;;;;;;9.10;5.33;;;;;8.10;100169.00;;;;10431178;28;20206;-78
2021/01/12 08:06:09;;;;;;;7.90;5.63;;;;;8.20;100171.00;;;;10481558;28;20199;-78
2021/01/12 08:11:14;;;;;;;10.53;6.40;;;;;8.20;100176.00;;;;10453197;28;20201;-78
2021/01/12 08:16:16;;;;;;;12.27;6.87;;;;;8.20;100182.00;;;;10446627;28;20539;-78
2021/01/12 08:21:17;;;;;;;15.10;6.73;;;;;8.20;100190.00;;;;10427579;28;20256;-78
2021/01/12 08:26:19;;;;;;;11.33;7.83;;;;;8.20;100195.00;;;;10419312;28;20214;-78
2021/01/12 08:31:21;;;;;;;11.23;5.53;;;;;8.20;100196.00;;;;10450465;28;20218;-78
2021/01/12 08:36:28;;;;;;;12.67;5.87;;;;;8.20;100216.00;;;;10442667;28;20547;-78
2021/01/12 08:41:32;;;;;;;12.90;6.07;;;;;8.20;100222.00;;;;10442273;28;20276;-78
2021/01/12 08:46:33;;;;;;;8.53;4.20;;;;;8.20;100207.00;;;;10420860;28;20207;-79
2021/01/12 08:51:36;;;;;;;6.60;4.33;;;;;8.30;100245.00;;;;10432952;28;20186;-79
2021/01/12 08:56:38;;;;;;;5.13;2.90;;;;;8.20;100251.00;;;;10443435;28;20241;-79
2021/01/12 09:01:42;;;;;;;6.27;2.97;;;;;8.40;100253.00;;;;10431412;28;20200;-79
2021/01/12 09:06:44;;;;;;;2.97;2.17;;;;;8.30;100255.00;;;;10454289;28;20201;-78
2021/01/12 09:11:47;;;;;;;4.43;1.60;;;;;8.30;100258.00;;;;10420646;28;20198;-79
2021/01/12 09:16:54;;;;;;;2.40;1.00;;;;;8.10;100267.00;;;;10464285;28;20206;-79
2021/01/12 09:22:06;;;;;;;1.30;0.90;;;;;8.00;100288.00;;;;10444218;28;20194;-79
2021/01/12 09:27:08;;;;;;;4.13;1.37;;;;;8.00;100298.00;;;;10454931;28;20286;-79
2021/01/12 09:32:11;;;;;;;2.87;1.00;;;;;8.00;100310.00;;;;10422646;28;20199;-79
2021/01/12 09:37:19;;;;;;;6.13;1.27;;;;;8.10;100301.00;;;;10419049;28;20207;-79
2021/01/12 09:42:26;;;;;;;6.30;1.53;;;;;8.20;100311.00;;;;10460071;28;20285;-79
2021/01/12 09:47:41;;;;;;;6.73;1.30;;;;;8.40;100302.00;;;;10440936;28;20194;-79
2021/01/12 09:52:42;;;;;;;2.33;1.40;;;;;8.30;100312.00;;;;10410661;28;20198;-79
2021/01/12 09:57:47;;;;;;;7.37;2.07;;;;;8.10;100325.00;;;;10423229;28;20785;-79
2021/01/12 10:02:48;;;;;;;2.83;1.37;;;;;7.90;100354.00;;;;10444639;28;20242;-78
2021/01/12 10:07:49;;;;;;;3.57;1.10;;;;;7.80;100351.00;;;;10444023;28;20218;-79
2021/01/12 10:12:51;;;;;;;4.43;1.83;;;;;7.80;100377.00;;;;10450204;28;20252;-78
2021/01/12 10:17:53;;;;;;;5.57;2.20;;;;;7.80;100386.00;;;;10414539;28;20191;-79
2021/01/12 10:22:54;;;;;;;5.20;2.20;;;;;8.00;100385.00;;;;10424302;28;20199;-78
2021/01/12 10:27:56;;;;;;;3.90;2.57;;;;;8.10;100396.00;;;;10399080;28;20210;-78
2021/01/12 10:32:57;;;;;;;9.00;3.40;;;;;7.90;100398.00;;;;10462076;28;20189;-78
2021/01/12 10:37:59;;;;;;;9.50;3.80;;;;;7.70;100409.00;;;;10425078;28;20579;-77
2021/01/12 10:43:02;;;;;;;5.17;3.60;;;;;7.40;100422.00;;;;10413267;28;20206;-78
2021/01/12 10:48:06;;;;;;;8.13;3.80;;;;;7.40;100443.00;;;;10436299;28;20264;-78
2021/01/12 10:53:07;;;;;;;2.40;1.73;;;;;7.30;100452.00;;;;10396049;28;20194;-79
2021/01/12 10:58:09;;;;;;;6.87;2.03;;;;;7.30;100467.00;;;;10414779;28;20250;-78
2021/01/12 11:03:10;;;;;;;3.07;1.47;;;;;7.20;100476.00;;;;10410850;28;20255;-77
2021/01/12 11:08:13;;;;;;;6.13;1.23;;;;;7.30;100481.00;;;;10410186;28;20702;-78
2021/01/12 11:13:17;;;;;;;2.80;1.17;;;;;7.30;100489.00;;;;10426164;28;20194;-77
2021/01/12 11:18:19;;;;;;;6.63;1.00;;;;;7.80;100487.00;;;;10446750;28;20198;-77
2021/01/12 11:23:21;;;;;;;4.90;1.00;;;;;8.10;100494.00;;;;10432020;28;20202;-78
2021/01/12 11:28:22;;;;;;;4.23;1.13;;;;;8.20;100476.00;;;;10463847;28;20207;-78
2021/01/12 11:33:24;;;;;;;3.23;0.83;;;;;8.00;100499.00;;;;10413130;28;20194;-78
2021/01/12 11:38:25;;;;;;;3.13;0.90;;;;;8.50;100496.00;;;;10461662;28;20266;-78
2021/01/12 11:43:27;;;;;;;7.57;1.10;;;;;8.40;100480.00;;;;10458460;28;20210;-78
2021/01/12 11:48:28;;;;;;;4.17;1.40;;;;;8.40;100491.00;;;;10444345;28;20273;-78
2021/01/12 11:53:29;;;;;;;3.20;1.00;;;;;8.30;100481.00;;;;10446806;28;20191;-77
2021/01/12 11:58:31;;;;;;;3.10;1.53;;;;;7.90;100487.00;;;;10457517;28;20240;-78
2021/01/12 12:03:32;;;;;;;4.53;0.80;;;;;7.90;100501.00;;;;10440489;28;20198;-78
2021/01/12 12:08:34;;;;;;;2.50;1.17;;;;;8.40;100494.00;;;;10473016;28;20206;-78
2021/01/12 12:13:42;;;;;;;3.93;1.70;;;;;8.20;100504.00;;;;10416411;28;20194;-78
2021/01/12 12:18:43;;;;;;;2.37;1.20;;;;;7.90;100499.00;;;;10453912;28;20183;-78
2021/01/12 12:23:45;;;;;;;5.67;1.10;;;;;8.30;100497.00;;;;10473829;28;20186;-78
2021/01/12 12:28:47;;;;;;;1.47;0.83;;;;;8.30;100489.00;;;;10456633;28;20202;-78
2021/01/12 12:33:48;;;;;;;3.67;1.00;;;;;8.10;100512.00;;;;10443425;28;20209;-78
2021/01/12 12:38:50;;;;;;;7.73;1.20;;;;;8.00;100518.00;;;;10424560;28;20209;-78
2021/01/12 12:43:51;;;;;;;5.33;1.10;;;;;8.00;100520.00;;;;10454020;28;20618;-77
2021/01/12 12:48:54;;;;;;;4.67;1.10;;;;;8.00;100521.00;;;;10454137;28;20649;-77
2021/01/12 12:53:55;;;;;;;3.43;0.77;;;;;7.60;100549.00;;;;10450914;28;20217;-78
2021/01/12 12:58:58;;;;;;;0.83;0.40;;;;;6.50;100545.00;;;;10445557;28;20277;-78
2021/01/12 13:04:02;;;;;;;4.63;1.13;;;;;6.30;100552.00;;;;10448490;28;20228;-78
2021/01/12 13:09:04;;;;;;;3.97;1.30;;;;;6.50;100571.00;;;;10395079;28;20214;-78
2021/01/12 13:14:06;;;;;;;3.40;0.87;;;;;6.80;100564.00;;;;10428484;28;20218;-78
2021/01/12 13:19:11;;;;;;;1.30;0.70;;;;;6.80;100587.00;;;;10383610;28;20187;-77
2021/01/12 13:24:13;;;;;;;3.70;0.90;;;;;7.40;100587.00;;;;10392981;28;20195;-77
2021/01/12 13:29:16;;;;;;;3.00;1.00;;;;;7.30;100604.00;;;;10394959;28;20210;-78
2021/01/12 13:34:17;;;;;;;8.03;1.03;;;;;7.50;100608.00;;;;10410701;28;20270;-77
2021/01/12 13:39:19;;;;;;;6.83;1.73;;;;;7.90;100625.00;;;;10449483;28;20187;-78
2021/01/12 13:44:20;;;;;;;7.60;1.63;;;;;7.30;100634.00;;;;10446643;28;20214;-77
2021/01/12 13:49:22;;;;;;;4.33;1.43;;;;;7.00;100632.00;;;;10426693;28;20674;-78
2021/01/12 13:54:24;;;;;;;10.00;1.30;;;;;6.80;100646.00;;;;10421817;28;20261;-78
2021/01/12 13:59:26;;;;;;;12.60;1.30;;;;;6.80;100650.00;;;;10413086;28;20198;-78
2021/01/12 14:04:27;;;;;;;8.23;1.20;;;;;6.70;100648.00;;;;10435071;28;20195;-78
2021/01/12 14:09:29;;;;;;;12.60;1.70;;;;;6.40;100663.00;;;;10442877;28;20203;-77
2021/01/12 14:14:31;;;;;;;9.70;2.23;;;;;6.30;100664.00;;;;10411473;28;20197;-77
2021/01/12 14:19:32;;;;;;;6.47;1.37;;;;;6.10;100677.00;;;;10437935;28;20255;-78
2021/01/12 14:24:34;;;;;;;10.23;1.33;;;;;6.40;100686.00;;;;10445261;28;20653;-77
2021/01/12 14:29:35;;;;;;;7.10;1.60;;;;;6.90;100698.00;;;;10436198;28;20210;-78
2021/01/12 14:34:38;;;;;;;8.27;1.40;;;;;6.80;100726.00;;;;10452090;28;20189;-78
2021/01/12 14:40:02;;;;;;;9.43;1.43;;;;;6.60;100723.00;;;;10418570;28;20207;-78
2021/01/12 14:45:06;;;;;;;2.43;1.00;;;;;6.40;100727.00;;;;10396437;28;20218;-77
2021/01/12 14:50:08;;;;;;;5.43;1.10;;;;;6.50;100740.00;;;;10415422;28;20238;-77
2021/01/12 14:55:09;;;;;;;8.20;1.10;;;;;6.50;100745.00;;;;10437058;28;20262;-78
2021/01/12 15:00:12;;;;;;;7.97;1.23;;;;;6.40;100764.00;;;;10449852;28;20194;-77
2021/01/12 15:05:13;;;;;;;6.87;1.20;;;;;6.20;100775.00;;;;10466130;28;20249;-77
2021/01/12 15:10:14;;;;;;;6.80;1.30;;;;;6.10;100778.00;;;;10444281;28;20217;-77
2021/01/12 15:15:16;;;;;;;6.47;1.47;;;;;6.00;100793.00;;;;10444898;28;20252;-77
2021/01/12 15:20:18;;;;;;;5.50;1.10;;;;;5.80;100796.00;;;;10436917;28;20187;-77
2021/01/12 15:25:19;;;;;;;7.53;1.80;;;;;5.80;100806.00;;;;10419077;28;20407;-78
2021/01/12 15:30:22;;;;;;;19.10;8.83;;;;;5.60;100816.00;;;;10460708;28;20296;-77
2021/01/12 15:35:40;;;;;;;10.77;1.70;;;;;5.50;100827.00;;;;10432990;28;20759;-77
2021/01/12 15:40:43;;;;;;;8.90;2.00;;;;;5.30;100837.00;;;;10409042;28;20186;-77
2021/01/12 15:45:45;;;;;;;9.57;1.47;;;;;5.10;100853.00;;;;10436039;28;20265;-78
2021/01/12 15:50:46;;;;;;;8.53;1.70;;;;;5.00;100867.00;;;;10415570;28;20198;-77
2021/01/12 15:55:48;;;;;;;4.20;1.33;;;;;4.90;100874.00;;;;10427604;28;20658;-77
2021/01/12 16:00:50;;;;;;;4.87;1.00;;;;;4.70;100878.00;;;;10422935;28;20230;-77
2021/01/12 16:05:53;;;;;;;6.93;1.23;;;;;4.50;100893.00;;;;10446273;28;20191;-77
2021/01/12 16:10:58;;;;;;;6.40;2.00;;;;;4.50;100896.00;;;;10415949;28;20233;-77
2021/01/12 16:15:59;;;;;;;5.43;1.90;;;;;4.50;100898.00;;;;10445366;28;20765;-76
2021/01/12 16:21:06;;;;;;;2.83;1.77;;;;;4.50;100907.00;;;;10430009;28;20187;-77
2021/01/12 16:26:08;;;;;;;6.17;1.60;;;;;4.40;100905.00;;;;10391011;28;20190;-76
2021/01/12 16:31:10;;;;;;;5.63;1.50;;;;;4.40;100904.00;;;;10413427;28;20211;-77
2021/01/12 16:36:16;;;;;;;4.97;2.07;;;;;4.30;100898.00;;;;10410875;28;20269;-77
2021/01/12 16:41:20;;;;;;;5.23;1.57;;;;;4.20;100891.00;;;;10386754;28;20194;-77
2021/01/12 16:46:29;;;;;;;5.73;1.87;;;;;4.00;100910.00;;;;10434398;28;20217;-76
2021/01/12 16:51:48;;;;;;;6.90;1.90;;;;;3.80;100915.00;;;;10425882;28;20190;-76
2021/01/12 16:57:04;;;;;;;11.00;1.83;;;;;3.70;100904.00;;;;10407431;28;20297;-76
2021/01/12 17:02:30;;;;;;;6.27;2.03;;;;;3.60;100929.00;;;;10435424;28;20212;-76
2021/01/12 17:07:35;;;;;;;10.60;2.23;;;;;3.60;100925.00;;;;10436265;28;20219;-76
2021/01/12 17:12:37;;;;;;;4.00;1.33;;;;;3.40;100940.00;;;;10441794;28;20197;-76
2021/01/12 17:17:44;;;;;;;7.07;2.43;;;;;3.30;100954.00;;;;10416925;28;20195;-76
2021/01/12 17:23:12;;;;;;;6.33;2.00;;;;;3.20;100954.00;;;;10384205;28;20236;-76
2021/01/12 17:28:15;;;;;;;13.97;2.10;;;;;3.20;100960.00;;;;10448536;28;20693;-76
2021/01/12 17:33:18;;;;;;;11.53;3.03;;;;;3.30;100966.00;;;;10436846;28;20213;-75
2021/01/12 17:38:22;;;;;;;6.53;2.30;;;;;3.50;100976.00;;;;10410547;28;20274;-76
2021/01/12 17:43:41;;;;;;;6.90;2.37;;;;;3.60;100979.00;;;;10416523;28;20645;-76
2021/01/12 17:48:49;;;;;;;8.70;2.50;;;;;3.70;100997.00;;;;10400446;28;20269;-75
2021/01/12 17:54:07;;;;;;;7.60;2.43;;;;;3.70;101002.00;;;;10417132;28;20194;-76
2021/01/12 17:59:18;;;;;;;5.57;2.90;;;;;3.80;101014.00;;;;10411548;28;20188;-76
2021/01/12 18:04:33;;;;;;;8.63;2.27;;;;;3.70;101016.00;;;;10417361;28;20191;-76
2021/01/12 18:09:38;;;;;;;5.67;2.10;;;;;3.80;101022.00;;;;10419194;28;20254;-75
2021/01/12 18:14:41;;;;;;;6.27;2.13;;;;;3.70;101025.00;;;;10423859;28;20197;-75
2021/01/12 18:19:44;;;;;;;8.63;2.97;;;;;3.70;101037.00;;;;10404963;28;20200;-76
2021/01/12 18:24:47;;;;;;;3.63;1.80;;;;;3.60;101046.00;;;;10407899;28;20197;-76
2021/01/12 18:29:55;;;;;;;11.97;2.60;;;;;3.70;101058.00;;;;10380054;28;20207;-76
2021/01/12 18:34:58;;;;;;;8.80;2.73;;;;;3.80;101067.00;;;;10404979;28;20202;-76
2021/01/12 18:40:09;;;;;;;8.20;3.60;;;;;3.80;101079.00;;;;10439248;28;20201;-76
2021/01/12 18:45:17;;;;;;;9.03;3.20;;;;;3.80;101088.00;;;;10411488;28;20632;-76
2021/01/12 18:50:29;;;;;;;9.10;3.03;;;;;3.70;101103.00;;;;10424027;28;20206;-76
2021/01/12 18:55:32;;;;;;;15.97;3.53;;;;;3.70;101120.00;;;;10397004;28;20209;-77
2021/01/12 19:00:34;;;;;;;18.00;4.13;;;;;3.70;101112.00;;;;10422714;28;20201;-76
2021/01/12 19:05:39;;;;;;;12.73;3.23;;;;;3.60;101117.00;;;;10398169;28;20280;-77
2021/01/12 19:10:43;;;;;;;8.30;3.00;;;;;3.50;101123.00;;;;10436960;28;20210;-77
2021/01/12 19:15:45;;;;;;;18.07;3.67;;;;;3.40;101129.00;;;;10437447;28;20661;-77
2021/01/12 19:20:47;;;;;;;9.33;3.13;;;;;3.30;101138.00;;;;10447915;28;20186;-77
2021/01/12 19:25:48;;;;;;;8.13;3.13;;;;;3.20;101142.00;;;;10457703;28;20249;-77
2021/01/12 19:30:50;;;;;;;7.07;2.60;;;;;3.20;101153.00;;;;10443757;28;20593;-77
2021/01/12 19:35:55;;;;;;;10.47;3.40;;;;;3.20;101162.00;;;;10424453;28;20225;-77
2021/01/12 19:40:58;;;;;;;7.00;3.50;;;;;3.20;101164.00;;;;10453770;28;20187;-76
2021/01/12 19:46:02;;;;;;;9.60;3.47;;;;;3.00;101167.00;;;;10420497;28;20778;-76
2021/01/12 19:51:04;;;;;;;10.60;3.80;;;;;2.80;101171.00;;;;10431479;28;20210;-76
2021/01/12 19:56:06;;;;;;;10.40;3.70;;;;;2.70;101182.00;;;;10419567;28;20233;-76
2021/01/12 20:01:08;;;;;;;10.20;3.63;;;;;2.60;101188.00;;;;10444333;28;20251;-77
2021/01/12 20:06:09;;;;;;;11.27;3.87;;;;;2.50;101198.00;;;;10465356;28;20193;-76
2021/01/12 20:11:11;;;;;;;9.40;4.03;;;;;2.50;101203.00;;;;10433553;28;20277;-76
2021/01/12 20:16:13;;;;;;;14.90;4.30;;;;;2.60;101215.00;;;;10455076;28;20960;-76
2021/01/12 20:21:20;;;;;;;11.10;4.93;;;;;2.70;101223.00;;;;10462898;28;20698;-76
2021/01/12 20:26:22;;;;;;;12.80;4.97;;;;;2.80;101224.00;;;;10451868;28;20194;-77
2021/01/12 20:31:25;;;;;;;13.80;4.67;;;;;2.80;101233.00;;;;10415409;28;20206;-77
2021/01/12 20:36:29;;;;;;;14.23;5.50;;;;;2.70;101230.00;;;;10441769;28;20225;-77
2021/01/12 20:41:33;;;;;;;15.03;4.80;;;;;2.70;101240.00;;;;10443640;28;20198;-76
2021/01/12 20:46:41;;;;;;;8.73;2.80;;;;;2.60;101241.00;;;;10432492;28;21889;-77
2021/01/12 20:51:45;;;;;;;8.67;3.60;;;;;2.50;101241.00;;;;10477411;28;20221;-77
2021/01/12 20:56:48;;;;;;;9.43;3.07;;;;;2.30;101241.00;;;;10438567;28;20232;-76
2021/01/12 21:01:49;;;;;;;19.03;3.80;;;;;2.20;101248.00;;;;10420285;28;20198;-77
2021/01/12 21:06:52;;;;;;;10.77;4.07;;;;;2.20;101261.00;;;;10437571;28;20662;-77
2021/01/12 21:11:55;;;;;;;8.37;4.00;;;;;2.10;101262.00;;;;10468762;28;20198;-76
2021/01/12 21:17:07;;;;;;;17.03;5.33;;;;;2.20;101261.00;;;;10445337;28;20248;-77
2021/01/12 21:22:09;;;;;;;13.87;5.47;;;;;2.30;101282.00;;;;10410640;28;20229;-76
2021/01/12 21:27:10;;;;;;;18.87;6.70;;;;;2.40;101286.00;;;;10456986;28;20217;-77
2021/01/12 21:32:11;;;;;;;16.70;7.10;;;;;2.50;101296.00;;;;10424447;28;20209;-77
2021/01/12 21:37:13;;;;;;;19.10;6.77;;;;;2.50;101297.00;;;;10418840;28;20199;-76
2021/01/12 21:42:17;;;;;;;14.93;6.40;;;;;2.60;101289.00;;;;10457011;28;20281;-77
2021/01/12 21:47:19;;;;;;;24.60;8.23;;;;;2.60;101292.00;;;;10443333;28;20217;-76
2021/01/12 21:52:21;;;;;;;21.37;8.10;;;;;2.60;101292.00;;;;10428404;28;20285;-77
2021/01/12 21:57:23;;;;;;;17.60;8.00;;;;;2.60;101301.00;;;;10436079;28;20522;-77
2021/01/12 22:02:25;;;;;;;20.60;7.53;;;;;2.50;101306.00;;;;10446808;28;20293;-77
2021/01/12 22:07:27;;;;;;;17.80;7.43;;;;;2.50;101322.00;;;;10443945;28;20244;-77
2021/01/12 22:12:28;;;;;;;20.87;10.23;;;;;2.30;101314.00;;;;10441790;28;20665;-77
2021/01/12 22:17:30;;;;;;;18.00;7.17;;;;;2.10;101309.00;;;;10411097;28;20191;-77
2021/01/12 22:22:32;;;;;;;16.17;7.33;;;;;2.00;101314.00;;;;10415782;28;20198;-77
2021/01/12 22:27:36;;;;;;;12.93;6.70;;;;;1.90;101325.00;;;;10416599;28;20607;-77
2021/01/12 22:32:38;;;;;;;19.53;7.07;;;;;1.90;101323.00;;;;10424612;28;20240;-77
2021/01/12 22:37:41;;;;;;;16.13;7.70;;;;;1.80;101325.00;;;;10425869;28;20197;-76
2021/01/12 22:42:43;;;;;;;14.03;7.60;;;;;1.70;101330.00;;;;10413806;28;20218;-76
2021/01/12 22:47:44;;;;;;;19.40;9.20;;;;;1.60;101331.00;;;;10395084;28;20205;-78
2021/01/12 22:52:46;;;;;;;17.33;7.97;;;;;1.50;101336.00;;;;10406770;28;20221;-77
2021/01/12 22:57:47;;;;;;;22.97;7.67;;;;;1.50;101349.00;;;;10419352;28;20587;-77
2021/01/12 23:02:51;;;;;;;20.50;8.63;;;;;1.40;101343.00;;;;10402961;28;20256;-78
2021/01/12 23:07:54;;;;;;;14.60;8.60;;;;;1.30;101357.00;;;;10429352;28;20211;-77
2021/01/12 23:12:56;;;;;;;17.07;7.90;;;;;1.30;101359.00;;;;10404137;28;20638;-78
2021/01/12 23:18:04;;;;;;;15.47;9.43;;;;;1.30;101349.00;;;;10392215;28;20194;-78
2021/01/12 23:23:09;;;;;;;20.57;8.50;;;;;1.20;101364.00;;;;10383496;28;20278;-78
2021/01/12 23:28:11;;;;;;;18.43;8.97;;;;;1.10;101372.00;;;;10418083;28;20203;-78
2021/01/12 23:33:12;;;;;;;19.13;9.43;;;;;1.10;101371.00;;;;10415231;28;20197;-78
2021/01/12 23:38:13;;;;;;;21.83;10.03;;;;;1.10;101372.00;;;;10430341;28;20194;-78
2021/01/12 23:43:15;;;;;;;23.83;8.17;;;;;1.00;101376.00;;;;10432632;28;20741;-77
2021/01/12 23:48:16;;;;;;;18.23;9.23;;;;;1.00;101369.00;;;;10451984;28;20203;-78
2021/01/12 23:53:18;;;;;;;21.60;10.20;;;;;1.00;101376.00;;;;10421383;28;20191;-77
2021/01/12 23:58:19;;;;;;;21.23;10.50;;;;;1.00;101375.00;;;;10378879;28;20186;-77
